createdAt,value
2023-01-12T00:01:25.632Z,145009.69
2023-01-12T00:03:53.038Z,145014.53
2023-01-12T00:06:20.394Z,145033.97
2023-01-12T00:08:48.144Z,145026.69
2023-01-12T00:11:15.697Z,145007.28
2023-01-12T00:13:42.778Z,145021.84
2023-01-12T00:16:33.040Z,145026.69
2023-01-12T00:19:00.537Z,145009.69
2023-01-12T00:21:27.368Z,144992.75
2023-01-12T00:23:54.254Z,145007.28
2023-01-12T00:26:21.039Z,144985.47
2023-01-12T00:28:47.958Z,145004.84
2023-01-12T00:31:14.766Z,144970.91
2023-01-12T00:33:41.608Z,144998.81
2023-01-12T00:36:11.289Z,144963.63
2023-01-12T00:38:38.543Z,145007.28
2023-01-12T00:41:06.139Z,145031.53
2023-01-12T00:43:53.503Z,144990.31
2023-01-12T00:46:30.793Z,145024.28
2023-01-12T00:48:57.747Z,144990.31
2023-01-12T00:51:24.816Z,145009.69
2023-01-12T00:53:51.634Z,145009.69
2023-01-12T00:56:18.400Z,145021.84
2023-01-12T00:58:45.209Z,145033.97
2023-01-12T01:01:12.098Z,145030.34
2023-01-12T01:03:38.963Z,145036.38
2023-01-12T01:06:06.942Z,145036.38
2023-01-12T01:08:36.011Z,144997.59
2023-01-12T01:11:07.922Z,145014.53
2023-01-12T01:13:36.486Z,145031.53
2023-01-12T01:16:04.891Z,145008.50
2023-01-12T01:18:32.474Z,145041.22
2023-01-12T01:20:59.270Z,145031.53
2023-01-12T01:23:26.678Z,145000.00
2023-01-12T01:25:53.490Z,145041.22
2023-01-12T01:28:20.721Z,145035.19
2023-01-12T01:30:48.085Z,145033.97
2023-01-12T01:33:14.894Z,145019.44
2023-01-12T01:35:41.699Z,145033.97
2023-01-12T01:38:09.383Z,145008.50
2023-01-12T01:40:41.751Z,145020.63
2023-01-12T01:43:09.905Z,144978.16
2023-01-12T01:45:36.777Z,144981.81
2023-01-12T01:48:03.794Z,144995.16
2023-01-12T01:50:38.243Z,145000.00
2023-01-12T01:53:08.416Z,145010.94
2023-01-12T01:55:41.400Z,145018.19
2023-01-12T01:58:09.867Z,144992.75
2023-01-12T02:00:38.196Z,145019.44
2023-01-12T02:03:06.704Z,145004.84
2023-01-12T02:05:33.812Z,145015.78
2023-01-12T02:08:02.884Z,145030.34
2023-01-12T02:10:29.761Z,145015.78
2023-01-12T02:13:15.485Z,145013.34
2023-01-12T02:16:08.325Z,144990.31
2023-01-12T02:19:01.249Z,145003.66
2023-01-12T02:21:46.817Z,145017.00
2023-01-12T02:24:27.336Z,145007.28
2023-01-12T02:27:09.152Z,145000.00
2023-01-12T02:29:48.117Z,145003.66
2023-01-12T02:32:17.741Z,145007.28
2023-01-12T02:34:51.480Z,145007.28
2023-01-12T02:37:18.258Z,145020.63
2023-01-12T02:39:58.548Z,145007.28
2023-01-12T02:46:04.369Z,145017.00
2023-01-12T02:48:35.969Z,144979.41
2023-01-12T02:51:05.596Z,144852.13
2023-01-12T02:53:51.449Z,144981.81
2023-01-12T02:56:24.194Z,145019.44
2023-01-12T02:58:54.395Z,144992.75
2023-01-12T03:01:22.451Z,144987.91
2023-01-12T03:03:50.473Z,145014.53
2023-01-12T03:06:17.988Z,145036.38
2023-01-12T03:08:45.997Z,145007.28
2023-01-12T03:11:12.767Z,145003.66
2023-01-12T03:13:50.824Z,144984.25
2023-01-12T03:16:20.031Z,145000.00
2023-01-12T03:19:02.012Z,145012.13
2023-01-12T03:21:28.794Z,145030.34
2023-01-12T03:24:00.873Z,145007.28
2023-01-12T03:26:29.391Z,145033.97
2023-01-12T03:29:02.194Z,145041.22
2023-01-12T03:31:29.198Z,145055.81
2023-01-12T03:33:56.207Z,145026.69
2023-01-12T03:36:43.283Z,145038.81
2023-01-12T03:39:16.263Z,145035.19
2023-01-12T03:41:54.619Z,145003.66
2023-01-12T03:44:28.655Z,145015.78
2023-01-12T03:46:58.910Z,145038.81
2023-01-12T03:49:38.351Z,145033.97
2023-01-12T03:52:07.335Z,145050.94
2023-01-12T03:54:35.549Z,145029.13
2023-01-12T03:57:03.540Z,145020.63
2023-01-12T03:59:30.371Z,145050.94
2023-01-12T04:01:57.241Z,145050.94
2023-01-12T04:04:24.041Z,145044.88
2023-01-12T04:06:50.896Z,145018.19
2023-01-12T04:09:17.722Z,145050.94
2023-01-12T04:12:02.980Z,145036.38
2023-01-12T04:14:29.809Z,145041.22
2023-01-12T04:16:56.757Z,145067.91
2023-01-12T04:19:23.650Z,145063.06
2023-01-12T04:22:09.223Z,145084.91
2023-01-12T04:24:36.025Z,145043.69
2023-01-12T04:27:02.849Z,145065.50
2023-01-12T04:29:29.644Z,145047.31
2023-01-12T04:31:56.503Z,145083.72
2023-01-12T04:34:23.621Z,145077.63
2023-01-12T04:36:50.436Z,145064.28
2023-01-12T04:39:17.268Z,145072.75
2023-01-12T04:41:44.063Z,145094.59
2023-01-12T04:44:10.950Z,145101.91
2023-01-12T04:46:37.766Z,145103.09
2023-01-12T04:49:04.861Z,145078.88
2023-01-12T04:51:31.720Z,145072.75
2023-01-12T04:53:58.756Z,145090.97
2023-01-12T04:56:25.548Z,145075.22
2023-01-12T04:58:56.258Z,145076.41
2023-01-12T05:01:23.161Z,145089.75
2023-01-12T05:03:50.142Z,145080.06
2023-01-12T05:06:16.988Z,145075.22
2023-01-12T05:09:02.669Z,145067.91
2023-01-12T05:11:29.670Z,145071.56
2023-01-12T05:13:57.102Z,145098.25
2023-01-12T05:16:24.752Z,145065.50
2023-01-12T05:18:53.247Z,145099.47
2023-01-12T05:21:22.021Z,145072.75
2023-01-12T05:23:49.823Z,145075.22
2023-01-12T05:26:16.632Z,145087.31
2023-01-12T05:28:43.565Z,145077.63
2023-01-12T05:31:11.961Z,145070.38
2023-01-12T05:33:40.029Z,145092.22
2023-01-12T05:36:07.650Z,145063.06
2023-01-12T05:38:34.613Z,145087.31
2023-01-12T05:41:02.253Z,145067.91
2023-01-12T05:43:47.733Z,145058.22
2023-01-12T05:46:15.353Z,145050.94
2023-01-12T05:48:42.181Z,145060.66
2023-01-12T05:51:10.078Z,145040.03
2023-01-12T05:53:37.153Z,145046.06
2023-01-12T05:56:25.505Z,145060.66
2023-01-12T05:58:56.838Z,145060.66
2023-01-12T06:01:23.806Z,145041.22
2023-01-12T06:03:51.844Z,145053.38
2023-01-12T06:06:19.607Z,145053.38
2023-01-12T06:08:46.648Z,145058.22
2023-01-12T06:11:32.533Z,145046.06
2023-01-12T06:14:00.309Z,145047.31
2023-01-12T06:16:27.807Z,145043.69
2023-01-12T06:18:54.835Z,145059.41
2023-01-12T06:21:22.053Z,145048.53
2023-01-12T06:23:48.850Z,145053.38
2023-01-12T06:26:16.093Z,145036.38
2023-01-12T06:28:43.126Z,145055.81
2023-01-12T06:31:11.441Z,145057.03
2023-01-12T06:33:38.256Z,145053.38
2023-01-12T06:36:05.705Z,145067.91
2023-01-12T06:38:33.138Z,145071.56
2023-01-12T06:41:04.150Z,145097.06
2023-01-12T06:43:31.019Z,145099.47
2023-01-12T06:45:58.128Z,145065.50
2023-01-12T06:48:25.965Z,145048.53
2023-01-12T06:50:55.756Z,145065.50
2023-01-12T06:53:22.588Z,145063.06
2023-01-12T06:55:50.222Z,145033.97
2023-01-12T06:58:17.772Z,145058.22
2023-01-12T07:00:45.063Z,145082.47
2023-01-12T07:03:19.026Z,145060.66
2023-01-12T07:05:46.025Z,145060.66
2023-01-12T07:08:16.012Z,145031.53
2023-01-12T07:10:43.052Z,145037.63
2023-01-12T07:13:09.922Z,145013.34
2023-01-12T07:15:36.919Z,145013.34
2023-01-12T07:18:03.872Z,145040.03
2023-01-12T07:20:32.202Z,145038.81
2023-01-12T07:22:59.050Z,145038.81
2023-01-12T07:25:26.113Z,144996.34
2023-01-12T07:27:53.811Z,145019.44
2023-01-12T07:30:23.693Z,145033.97
2023-01-12T07:32:50.798Z,145036.38
2023-01-12T07:35:18.007Z,145035.19
2023-01-12T07:37:51.417Z,145044.88
2023-01-12T07:40:18.292Z,145036.38
2023-01-12T07:42:45.186Z,145041.22
2023-01-12T07:45:12.866Z,145050.94
2023-01-12T07:47:39.742Z,145050.94
2023-01-12T07:50:06.768Z,145044.88
2023-01-12T07:52:33.729Z,145035.19
2023-01-12T07:55:00.612Z,145036.38
2023-01-12T07:57:28.537Z,145049.72
2023-01-12T07:59:55.350Z,145048.53
2023-01-12T08:02:22.236Z,145040.03
2023-01-12T08:04:49.330Z,145063.06
2023-01-12T08:07:16.151Z,145072.75
2023-01-12T08:09:42.999Z,145061.88
2023-01-12T08:12:09.803Z,145060.66
2023-01-12T08:14:38.194Z,145065.50
2023-01-12T08:17:14.189Z,145069.13
2023-01-12T08:19:43.746Z,145082.47
2023-01-12T08:22:15.807Z,145053.38
2023-01-12T08:24:48.660Z,145054.56
2023-01-12T08:27:17.493Z,145066.72
2023-01-12T08:29:47.048Z,145089.75
2023-01-12T08:32:17.715Z,145093.41
2023-01-12T08:34:47.407Z,145116.44
2023-01-12T08:37:16.202Z,145115.25
2023-01-12T08:39:43.346Z,145123.69
2023-01-12T08:42:10.180Z,145135.84
2023-01-12T08:44:37.054Z,145109.16
2023-01-12T08:47:14.281Z,145114.00
2023-01-12T08:49:41.069Z,145124.94
2023-01-12T08:52:07.869Z,145140.69
2023-01-12T08:54:35.778Z,145138.31
2023-01-12T08:57:02.650Z,145149.19
2023-01-12T08:59:29.517Z,145117.66
2023-01-12T09:01:56.865Z,145123.69
2023-01-12T09:04:23.830Z,145157.69
2023-01-12T09:06:50.665Z,145135.84
2023-01-12T09:09:19.286Z,145148.00
2023-01-12T09:11:46.809Z,145160.09
2023-01-12T09:14:14.179Z,145160.09
2023-01-12T09:16:41.291Z,145165.00
2023-01-12T09:19:08.677Z,145186.78
2023-01-12T09:21:39.521Z,145191.66
2023-01-12T09:24:06.788Z,145198.94
2023-01-12T09:26:36.867Z,145186.78
2023-01-12T09:29:04.311Z,145213.50
2023-01-12T09:31:32.983Z,145203.78
2023-01-12T09:33:59.975Z,145222.00
2023-01-12T09:36:28.072Z,145194.09
2023-01-12T09:38:54.919Z,145232.91
2023-01-12T09:41:45.270Z,145236.56
2023-01-12T09:44:51.086Z,145213.50
2023-01-12T09:47:36.828Z,145211.09
2023-01-12T09:50:09.402Z,145230.50
2023-01-12T09:52:50.355Z,145223.19
2023-01-12T09:55:19.356Z,145213.50
2023-01-12T09:57:55.074Z,145222.00
2023-01-12T10:00:22.177Z,145241.41
2023-01-12T10:02:51.853Z,145218.34
2023-01-12T10:05:44.093Z,145242.66
2023-01-12T10:08:28.424Z,145232.91
2023-01-12T10:11:05.913Z,145228.06
2023-01-12T10:13:44.443Z,145260.91
2023-01-12T10:16:18.498Z,145242.66
2023-01-12T10:18:47.829Z,145230.50
2023-01-12T10:21:14.679Z,145243.84
2023-01-12T10:23:42.268Z,145262.09
2023-01-12T10:26:15.581Z,145277.84
2023-01-12T10:28:43.135Z,145259.66
2023-01-12T10:31:20.837Z,145253.59
2023-01-12T10:34:07.009Z,145235.34
2023-01-12T10:36:35.567Z,145228.06
2023-01-12T10:39:04.229Z,145264.50
2023-01-12T10:41:32.158Z,145293.66
2023-01-12T10:43:58.952Z,145260.91
2023-01-12T10:46:31.452Z,145271.81
2023-01-12T10:49:15.802Z,145280.31
2023-01-12T10:51:59.348Z,145293.66
2023-01-12T10:54:31.387Z,145276.66
2023-01-12T10:56:58.247Z,145311.88
2023-01-12T10:59:33.059Z,145308.22
2023-01-12T11:02:00.345Z,145303.38
2023-01-12T11:04:28.364Z,145337.31
2023-01-12T11:06:56.704Z,145330.06
2023-01-12T11:09:27.489Z,145336.13
2023-01-12T11:11:55.288Z,145331.28
2023-01-12T11:14:40.272Z,145344.63
2023-01-12T11:17:25.899Z,145356.78
2023-01-12T11:19:53.738Z,145347.09
2023-01-12T11:22:30.160Z,145354.34
2023-01-12T11:25:03.172Z,145364.03
2023-01-12T11:27:34.243Z,145376.19
2023-01-12T11:30:15.696Z,145381.06
2023-01-12T11:32:42.510Z,145393.22
2023-01-12T11:35:21.294Z,145378.59
2023-01-12T11:37:48.583Z,145398.06
2023-01-12T11:40:25.593Z,145368.91
2023-01-12T11:43:13.909Z,145406.56
2023-01-12T11:45:51.717Z,145398.06
2023-01-12T11:48:35.991Z,145435.69
2023-01-12T11:51:02.911Z,145429.63
2023-01-12T11:53:29.804Z,145441.75
2023-01-12T11:56:15.571Z,145293.66
2023-01-12T11:58:47.664Z,145449.03
2023-01-12T12:01:33.340Z,145434.47
2023-01-12T12:04:04.011Z,145435.69
2023-01-12T12:06:35.881Z,145439.34
2023-01-12T12:09:02.693Z,145449.03
2023-01-12T12:11:41.802Z,145436.88
2023-01-12T12:14:28.952Z,145456.34
2023-01-12T12:17:00.302Z,145447.84
2023-01-12T12:19:32.771Z,145415.03
2023-01-12T12:22:08.284Z,145444.19
2023-01-12T12:24:42.870Z,145432.03
2023-01-12T12:27:09.646Z,145444.19
2023-01-12T12:29:42.614Z,145451.44
2023-01-12T12:32:12.267Z,145427.19
2023-01-12T12:34:52.130Z,145458.75
2023-01-12T12:37:37.527Z,145466.06
2023-01-12T12:40:58.327Z,145453.91
2023-01-12T12:43:53.705Z,145467.25
2023-01-12T12:46:38.908Z,145474.56
2023-01-12T12:49:10.576Z,145486.69
2023-01-12T12:51:39.422Z,145507.34
2023-01-12T12:54:09.919Z,145466.06
2023-01-12T12:56:37.612Z,145472.13
2023-01-12T12:59:04.607Z,145466.06
2023-01-12T13:01:31.534Z,145473.31
2023-01-12T13:04:00.530Z,145446.59
2023-01-12T13:06:27.354Z,145458.75
2023-01-12T13:08:56.177Z,145481.81
2023-01-12T13:11:41.955Z,145489.13
2023-01-12T13:14:25.002Z,145466.06
2023-01-12T13:16:53.330Z,145475.78
2023-01-12T13:19:37.051Z,145472.13
2023-01-12T13:22:22.692Z,145496.41
2023-01-12T13:24:49.525Z,145517.06
2023-01-12T13:27:35.195Z,145466.06
2023-01-12T13:30:19.255Z,145480.63
2023-01-12T13:32:58.450Z,145475.78
2023-01-12T13:35:48.082Z,145470.91
2023-01-12T13:38:27.283Z,145485.47
2023-01-12T13:41:01.801Z,145470.91
2023-01-12T13:43:34.576Z,145487.88
2023-01-12T13:46:10.730Z,145466.06
2023-01-12T13:48:41.912Z,145491.53
2023-01-12T13:51:14.739Z,145507.34
2023-01-12T13:53:41.773Z,145500.03
2023-01-12T13:56:18.731Z,145462.41
2023-01-12T13:58:45.683Z,145470.91
2023-01-12T14:01:17.847Z,145483.03
2023-01-12T14:04:04.133Z,145497.63
2023-01-12T14:06:31.041Z,145473.31
2023-01-12T14:09:20.636Z,145495.19
2023-01-12T14:11:50.240Z,145484.28
2023-01-12T14:14:51.057Z,145487.88
2023-01-12T14:17:42.963Z,145497.63
2023-01-12T14:20:17.112Z,145483.03
2023-01-12T14:22:45.994Z,145485.47
2023-01-12T14:25:20.423Z,145503.69
2023-01-12T14:27:54.985Z,145483.03
2023-01-12T14:30:23.503Z,145496.41
2023-01-12T14:32:50.945Z,145487.88
2023-01-12T14:35:23.210Z,145475.78
2023-01-12T14:37:54.843Z,145453.91
2023-01-12T14:40:34.035Z,145461.22
2023-01-12T14:43:20.589Z,145451.44
2023-01-12T14:46:17.663Z,145470.91
2023-01-12T14:48:57.034Z,145452.69
2023-01-12T14:51:25.856Z,145435.69
2023-01-12T14:53:57.595Z,145441.75
2023-01-12T14:56:26.584Z,145458.75
2023-01-12T14:58:53.814Z,145463.63
2023-01-12T15:01:35.072Z,145456.34
2023-01-12T15:04:02.620Z,145451.44
2023-01-12T15:06:29.753Z,145444.19
2023-01-12T15:08:58.932Z,145444.19
2023-01-12T15:11:33.700Z,145418.69
2023-01-12T15:14:00.924Z,145421.13
2023-01-12T15:16:46.584Z,145446.59
2023-01-12T15:19:32.157Z,145416.28
2023-01-12T15:22:18.077Z,145424.78
2023-01-12T15:25:14.439Z,145436.88
2023-01-12T15:27:41.275Z,145434.47
2023-01-12T15:30:08.994Z,145439.34
2023-01-12T15:32:46.683Z,145416.28
2023-01-12T15:35:21.166Z,145433.25
2023-01-12T15:37:48.093Z,145451.44
2023-01-12T15:40:15.359Z,145478.16
2023-01-12T15:42:42.435Z,145458.75
2023-01-12T15:45:23.999Z,145466.06
2023-01-12T15:47:51.357Z,145441.75
2023-01-12T15:50:18.192Z,145444.19
2023-01-12T15:52:45.119Z,145464.81
2023-01-12T15:55:17.108Z,145456.34
2023-01-12T15:57:44.484Z,145461.22
2023-01-12T16:00:15.628Z,145449.03
2023-01-12T16:02:45.305Z,145449.03
2023-01-12T16:05:12.333Z,145463.63
2023-01-12T16:07:39.226Z,145457.56
2023-01-12T16:10:06.276Z,145455.09
2023-01-12T16:12:33.138Z,145453.91
2023-01-12T16:15:00.954Z,145459.97
2023-01-12T16:17:27.857Z,145456.34
2023-01-12T16:19:54.651Z,145455.09
2023-01-12T16:22:22.630Z,145452.69
2023-01-12T16:24:50.299Z,145427.19
2023-01-12T16:27:18.312Z,145444.19
2023-01-12T16:29:45.192Z,145424.78
2023-01-12T16:32:12.298Z,145444.19
2023-01-12T16:34:39.423Z,145444.19
2023-01-12T16:37:10.135Z,145439.34
2023-01-12T16:39:36.995Z,145451.44
2023-01-12T16:42:03.866Z,145453.91
2023-01-12T16:44:37.736Z,145429.63
2023-01-12T16:47:05.415Z,145427.19
2023-01-12T16:49:35.972Z,145451.44
2023-01-12T16:52:04.314Z,145436.88
2023-01-12T16:54:31.166Z,145432.03
2023-01-12T16:56:58.787Z,145457.56
2023-01-12T16:59:28.471Z,145446.59
2023-01-12T17:01:55.572Z,145466.06
2023-01-12T17:04:23.221Z,145456.34
2023-01-12T17:06:50.231Z,145446.59
2023-01-12T17:09:17.792Z,145461.22
2023-01-12T17:11:44.799Z,145446.59
2023-01-12T17:14:24.423Z,145470.91
2023-01-12T17:16:52.935Z,145483.03
2023-01-12T17:19:20.113Z,145466.06
2023-01-12T17:21:48.008Z,145313.06
2023-01-12T17:24:18.232Z,145503.69
2023-01-12T17:26:45.749Z,145483.03
2023-01-12T17:29:15.195Z,145503.69
2023-01-12T17:31:42.306Z,145489.13
2023-01-12T17:34:11.998Z,145507.34
2023-01-12T17:36:39.023Z,145495.19
2023-01-12T17:39:06.349Z,145502.50
2023-01-12T17:41:51.896Z,145507.34
2023-01-12T17:44:18.798Z,145476.97
2023-01-12T17:46:46.216Z,145474.56
2023-01-12T17:49:13.081Z,145492.78
2023-01-12T17:51:40.374Z,145502.50
2023-01-12T17:54:08.469Z,145480.63
2023-01-12T17:56:35.543Z,145476.97
2023-01-12T17:59:03.408Z,145492.78
2023-01-12T18:01:31.671Z,145497.63
2023-01-12T18:03:59.488Z,145492.78
2023-01-12T18:06:27.266Z,145483.03
2023-01-12T18:08:56.684Z,145484.28
2023-01-12T18:11:24.077Z,145504.91
2023-01-12T18:13:50.878Z,145500.03
2023-01-12T18:16:18.178Z,145497.63
2023-01-12T18:18:45.408Z,145492.78
2023-01-12T18:21:13.707Z,145502.50
2023-01-12T18:23:43.320Z,145509.75
2023-01-12T18:26:11.778Z,145521.91
2023-01-12T18:28:38.621Z,145546.19
2023-01-12T18:31:09.798Z,145520.72
2023-01-12T18:33:37.139Z,145517.06
2023-01-12T18:36:08.105Z,145507.34
2023-01-12T18:38:35.117Z,145495.19
2023-01-12T18:41:21.269Z,145506.09
2023-01-12T18:43:50.508Z,145481.81
2023-01-12T18:46:17.868Z,145479.41
2023-01-12T18:48:45.750Z,145463.63
2023-01-12T18:51:31.558Z,145451.44
2023-01-12T18:53:58.418Z,145436.88
2023-01-12T18:56:25.319Z,145456.34
2023-01-12T18:58:52.221Z,145458.75
2023-01-12T19:01:20.273Z,145476.97
2023-01-12T19:03:48.354Z,145452.69
2023-01-12T19:06:41.401Z,145439.34
2023-01-12T19:09:26.930Z,145452.69
2023-01-12T19:11:53.874Z,145440.53
2023-01-12T19:14:56.411Z,145451.44
2023-01-12T19:17:32.703Z,145419.94
2023-01-12T19:20:07.594Z,145432.03
2023-01-12T19:22:53.249Z,145430.84
2023-01-12T19:25:40.415Z,145459.97
2023-01-12T19:28:29.371Z,145466.06
2023-01-12T19:30:58.983Z,145458.75
2023-01-12T19:33:25.896Z,145468.47
2023-01-12T19:35:52.726Z,145487.88
2023-01-12T19:38:19.585Z,145463.63
2023-01-12T19:40:53.741Z,145504.91
2023-01-12T19:43:25.257Z,145472.13
2023-01-12T19:45:58.873Z,145480.63
2023-01-12T19:48:26.309Z,145463.63
2023-01-12T19:50:53.796Z,145459.97
2023-01-12T19:53:22.049Z,145472.13
2023-01-12T19:55:50.097Z,145475.78
2023-01-12T19:58:17.052Z,145461.22
2023-01-12T20:00:47.601Z,145455.09
2023-01-12T20:03:19.018Z,145478.16
2023-01-12T20:05:47.427Z,145478.16
2023-01-12T20:08:15.012Z,145487.88
2023-01-12T20:10:41.991Z,145502.50
2023-01-12T20:13:11.860Z,145462.41
2023-01-12T20:15:39.434Z,145305.78
2023-01-12T20:18:08.675Z,145486.69
2023-01-12T20:20:35.833Z,145480.63
2023-01-12T20:23:02.949Z,145472.13
2023-01-12T20:25:29.786Z,145497.63
2023-01-12T20:27:57.647Z,145489.13
2023-01-12T20:30:37.500Z,145504.91
2023-01-12T20:33:05.697Z,145466.06
2023-01-12T20:35:32.752Z,145485.47
2023-01-12T20:38:00.062Z,145487.88
2023-01-12T20:40:26.890Z,145492.78
2023-01-12T20:42:53.957Z,145512.19
2023-01-12T20:45:20.971Z,145490.34
2023-01-12T20:47:47.826Z,145504.91
2023-01-12T20:50:15.290Z,145495.19
2023-01-12T20:52:42.181Z,145490.34
2023-01-12T20:55:09.859Z,145487.88
2023-01-12T20:57:38.675Z,145500.03
2023-01-12T21:00:07.117Z,145497.63
2023-01-12T21:02:35.703Z,145495.19
2023-01-12T21:05:02.935Z,145470.91
2023-01-12T21:07:29.800Z,145487.88
2023-01-12T21:09:56.582Z,145485.47
2023-01-12T21:12:25.214Z,145480.63
2023-01-12T21:14:54.421Z,145485.47
2023-01-12T21:17:21.600Z,145469.66
2023-01-12T21:19:48.462Z,145485.47
2023-01-12T21:22:15.346Z,145470.91
2023-01-12T21:24:42.269Z,145463.63
2023-01-12T21:27:09.210Z,145466.06
2023-01-12T21:29:36.022Z,145467.25
2023-01-12T21:32:03.048Z,145473.31
2023-01-12T21:34:29.972Z,145466.06
2023-01-12T21:36:56.997Z,145461.22
2023-01-12T21:39:23.857Z,145484.28
2023-01-12T21:42:09.528Z,145461.22
2023-01-12T21:44:36.327Z,145473.31
2023-01-12T21:47:03.222Z,145492.78
2023-01-12T21:49:30.151Z,145496.41
2023-01-12T21:51:56.968Z,145489.13
2023-01-12T21:54:23.802Z,145485.47
2023-01-12T21:56:50.715Z,145492.78
2023-01-12T21:59:18.370Z,145473.31
2023-01-12T22:01:45.425Z,145483.03
2023-01-12T22:04:12.436Z,145463.63
2023-01-12T22:06:39.413Z,145453.91
2023-01-12T22:09:06.273Z,145459.97
2023-01-12T22:11:33.166Z,145423.53
2023-01-12T22:14:00.008Z,145458.75
2023-01-12T22:16:27.073Z,145427.19
2023-01-12T22:18:54.004Z,145429.63
2023-01-12T22:21:21.183Z,145441.75
2023-01-12T22:23:48.100Z,145434.47
2023-01-12T22:26:15.748Z,145436.88
2023-01-12T22:28:43.830Z,145434.47
2023-01-12T22:31:11.701Z,145423.53
2023-01-12T22:33:39.031Z,145402.91
2023-01-12T22:36:06.908Z,145427.19
2023-01-12T22:38:33.853Z,145450.25
2023-01-12T22:41:07.446Z,145446.59
2023-01-12T22:43:40.399Z,145412.63
2023-01-12T22:46:17.977Z,145425.97
2023-01-12T22:48:47.373Z,145432.03
2023-01-12T22:51:14.233Z,145416.28
2023-01-12T22:53:41.034Z,145432.03
2023-01-12T22:56:07.911Z,145427.19
2023-01-12T22:58:34.816Z,145438.13
2023-01-12T23:01:07.284Z,145419.94
2023-01-12T23:03:34.940Z,145415.03
2023-01-12T23:06:02.603Z,145446.59
2023-01-12T23:08:29.580Z,145432.03
2023-01-12T23:11:04.356Z,145436.88
2023-01-12T23:13:31.431Z,145432.03
2023-01-12T23:16:02.174Z,145419.94
2023-01-12T23:18:30.828Z,145444.19
2023-01-12T23:21:02.495Z,145424.78
2023-01-12T23:23:30.705Z,145430.84
2023-01-12T23:26:05.051Z,145422.31
2023-01-12T23:28:38.927Z,145451.44
2023-01-12T23:31:06.888Z,145422.31
2023-01-12T23:33:34.253Z,145373.75
2023-01-12T23:36:02.145Z,145436.88
2023-01-12T23:38:29.187Z,145464.81
2023-01-12T23:40:56.111Z,145453.91
2023-01-12T23:43:23.093Z,145444.19
2023-01-12T23:45:50.089Z,145463.63
2023-01-12T23:48:17.402Z,145461.22
2023-01-12T23:50:44.362Z,145453.91
2023-01-12T23:53:11.298Z,145449.03
2023-01-12T23:55:39.454Z,145447.84
2023-01-12T23:58:06.590Z,145453.91
